Cleveland, Ohio
Traffic Map
Current Weather Conditions
Cleveland, Ohio
Broken Clouds
Broken Clouds
72°
Feels Like: 72°
Wind Chill: 72° Ceiling: 4400
Heat Index: 72° Visibility: 10mi
Dew Point: 67° Wind: 8mph
Humidity: 84% Direction: 70° (ENE)
Pressure: 30.02in Gusts: 0mph
Raw Report DataKBKL 231253Z 07007KT 10SM SCT012 BKN044 22/19 A3002 RMK AO2 SLP160 T02220194
Traffic Incident Summary
Active as of:
Severity:
Category:
InformationThere was an issue retrieving the traffic information for this location. Please try a different location or try again shortly.
Advertisements
Track Severe Weather on mobile